RODA DE TER (Osona)





Hora UTC 03:05
Temperatura 13.2 ºC
Humedad 96.5 %
Pluja 0.0 mm
Velocidad viento 4.7 km/h
Dirección viento SSE

Datos diarios 2024-05-30



Hora UTC (invierno +1h; verano +2h)
Temperatura (ºC) Humedad (%) Velocidad viento (km/h) Precipitación (mm)
Hora UTC Aire Humedad Vel. Dir. Vel. Max Dir. Intent. máx 5 min.
00:05 16.9 89.5 2.9 N 2.9 N 0.0
00:10 16.8 90.1 4.2 N 5.6 N 0.0
00:15 16.9 88.6 1.9 NNW 3.2 N 0.0
00:20 16.9 87.4 2.9 NNW 4.6 N 0.0
00:25 17.0 86.2 1.3 NNE 4.6 NNE 0.0
00:30 16.8 87.1 0.6 NNE 2.1 NNE 0.0
00:35 16.7 87.1 0.5 NNE 2.5 NNE 0.0
00:40 16.3 88.3 1.8 SE 6.7 SE 0.0
00:45 16.1 89.6 5.0 SE 5.6 SE 0.0
00:50 16.0 89.6 2.7 SSE 5.3 SSE 0.0
00:55 16.0 89.2 1.0 SSE 2.5 SSE 0.0
01:00 16.0 89.7 1.8 SSE 3.2 SSE 0.0
01:05 16.0 89.3 3.1 SSE 3.9 SSE 0.0
01:10 15.8 90.3 1.7 SE 3.9 SE 0.0
01:15 15.8 89.5 0.0 SE 1.1 SE 0.0
01:20 15.1 89.4 0.0 SE 1.1 SE 0.0
01:25 14.6 91.5 0.0 SE 1.1 SE 0.0
01:30 14.4 93.2 0.0 NNE 0.0 SE 0.0
01:35 14.2 93.6 0.1 SE 1.4 SE 0.0
01:40 14.2 94.7 0.2 SE 1.4 SE 0.0
01:45 14.0 94.2 0.7 SE 2.1 SE 0.0
01:50 13.8 93.6 0.0 NNE 0.0 SE 0.0
01:55 13.6 93.1 0.0 NNE 0.0 SE 0.0
02:00 13.5 94.5 0.0 NNE 0.0 SE 0.0
02:05 13.5 95.3 0.0 NNE 0.0 SE 0.0
02:10 13.4 94.4 0.1 SE 1.1 SE 0.0
02:15 13.0 93.1 0.0 NNE 0.0 SE 0.0
02:20 12.9 93.9 0.0 NNE 0.0 ESE 0.0
02:25 13.1 95.7 2.8 NNE 5.3 NNE 0.0
02:30 12.7 94.7 1.9 NNE 4.9 NNE 0.0
02:35 12.7 95.8 1.3 NNE 3.2 NE 0.0
02:40 13.0 96.5 2.2 NNE 4.6 NE 0.0
02:45 12.9 96.0 1.2 NE 3.2 NNE 0.0
02:50 12.8 95.5 0.0 NE 1.1 NE 0.0
02:55 13.0 95.6 0.0 NNE 0.0 NE 0.0
03:00 13.2 96.2 1.0 ESE 4.2 SE 0.0
03:05 13.2 96.5 4.7 SSE 6.0 SSE 0.0
Máxima 17.6 96.5 5.0 SE 6.7 SE 0.0
Mínima 12.6 86.2
Total 0.0